createdAt,value
2022-07-31T00:02:08.154Z,100711.25
2022-07-31T00:07:07.704Z,100723.00
2022-07-31T00:12:06.174Z,100759.63
2022-07-31T00:17:05.580Z,100750.78
2022-07-31T00:22:04.090Z,100721.44
2022-07-31T00:27:05.110Z,100731.84
2022-07-31T00:32:06.880Z,100763.38
2022-07-31T00:37:05.595Z,100741.47
2022-07-31T00:42:06.031Z,100720.06
2022-07-31T00:47:07.640Z,100708.78
2022-07-31T00:52:07.044Z,100754.22
2022-07-31T00:57:08.020Z,100712.19
2022-07-31T01:02:06.211Z,100731.16
2022-07-31T01:07:06.756Z,100715.31
2022-07-31T01:12:16.939Z,100714.13
2022-07-31T01:17:17.598Z,100717.81
2022-07-31T01:22:38.347Z,100750.06
2022-07-31T01:27:50.225Z,100738.34
2022-07-31T01:32:52.439Z,100712.88
2022-07-31T01:37:57.244Z,100719.94
2022-07-31T01:43:00.267Z,100718.31
2022-07-31T01:48:03.839Z,100735.59
2022-07-31T01:53:11.172Z,100703.84
2022-07-31T01:58:10.505Z,100699.13
2022-07-31T02:03:12.189Z,100682.78
2022-07-31T02:08:14.008Z,100716.78
2022-07-31T02:13:17.981Z,100680.91
2022-07-31T02:18:17.430Z,100678.63
2022-07-31T02:23:45.070Z,100670.84
2022-07-31T02:28:45.744Z,100684.22
2022-07-31T02:33:46.744Z,100692.75
2022-07-31T02:38:47.426Z,100660.69
2022-07-31T02:43:46.386Z,100658.28
2022-07-31T02:48:56.361Z,100689.50
2022-07-31T02:53:55.877Z,100669.19
2022-07-31T02:59:04.994Z,100682.28
2022-07-31T03:04:19.809Z,100645.44
2022-07-31T03:09:17.292Z,100665.66
2022-07-31T03:14:18.319Z,100660.91
2022-07-31T03:19:18.729Z,100697.56
2022-07-31T03:24:18.701Z,100675.09
2022-07-31T03:29:42.665Z,100703.16
2022-07-31T03:34:48.564Z,100702.88
2022-07-31T03:39:47.650Z,100675.53
2022-07-31T03:44:51.615Z,100676.56
2022-07-31T03:49:50.545Z,100705.72
2022-07-31T03:54:50.188Z,100683.44
2022-07-31T03:59:51.100Z,100692.94
2022-07-31T04:04:52.318Z,100694.03
2022-07-31T04:10:03.711Z,100715.22
2022-07-31T04:15:03.413Z,100683.91
2022-07-31T04:20:05.604Z,100705.63
2022-07-31T04:25:06.369Z,100721.13
2022-07-31T04:30:28.553Z,100695.19
2022-07-31T04:35:27.976Z,100706.13
2022-07-31T04:40:27.670Z,100695.88
2022-07-31T04:45:31.931Z,100716.50
2022-07-31T04:50:29.486Z,100704.00
2022-07-31T04:55:30.230Z,100723.00
2022-07-31T05:00:29.305Z,100741.75
2022-07-31T05:05:30.906Z,100754.28
2022-07-31T05:10:53.407Z,100731.84
2022-07-31T05:15:52.717Z,100713.56
2022-07-31T05:20:53.295Z,100762.13
2022-07-31T05:26:03.539Z,100728.84
2022-07-31T05:31:02.583Z,100747.59
2022-07-31T05:36:03.015Z,100743.22
2022-07-31T05:41:03.052Z,100743.44
2022-07-31T05:46:09.820Z,100751.00
2022-07-31T05:51:10.631Z,100784.03
2022-07-31T05:56:09.532Z,100771.56
2022-07-31T06:01:13.179Z,100738.34
2022-07-31T06:06:17.531Z,100756.53
2022-07-31T06:11:27.257Z,100763.59
2022-07-31T06:16:27.047Z,100755.94
2022-07-31T06:21:30.914Z,100769.09
2022-07-31T06:26:32.032Z,100757.72
2022-07-31T06:31:41.614Z,100742.00
2022-07-31T06:36:42.400Z,100731.97
2022-07-31T06:41:51.982Z,100767.00
2022-07-31T06:47:03.671Z,100775.84
2022-07-31T06:52:23.791Z,100793.69
2022-07-31T06:57:35.431Z,100779.84
2022-07-31T07:02:48.639Z,100752.34
2022-07-31T07:07:49.483Z,100737.16
2022-07-31T07:12:49.546Z,100780.69
2022-07-31T07:17:55.812Z,100740.09
2022-07-31T07:23:05.647Z,100728.91
2022-07-31T07:28:29.339Z,100761.22
2022-07-31T07:33:54.668Z,100715.47
2022-07-31T07:38:56.350Z,100743.84
2022-07-31T07:43:55.527Z,100743.03
2022-07-31T07:48:58.598Z,100716.91
2022-07-31T07:54:08.778Z,100718.47
2022-07-31T07:59:32.829Z,100727.81
2022-07-31T08:05:04.535Z,100745.47
2022-07-31T08:10:27.621Z,100711.16
2022-07-31T08:15:39.478Z,100728.59
2022-07-31T08:20:55.560Z,100736.59
2022-07-31T08:25:54.060Z,100742.81
2022-07-31T08:30:55.714Z,100738.25
2022-07-31T08:35:57.193Z,100720.38
2022-07-31T08:40:56.745Z,100742.84
2022-07-31T08:46:05.340Z,100729.91
2022-07-31T08:51:11.783Z,100714.38
2022-07-31T08:56:34.552Z,100706.03
2022-07-31T09:01:36.751Z,100726.66
2022-07-31T09:06:36.297Z,100705.44
2022-07-31T09:11:35.467Z,100701.97
2022-07-31T09:16:57.107Z,100695.19
2022-07-31T09:21:55.406Z,100703.66
2022-07-31T09:27:05.512Z,100699.44
2022-07-31T09:32:19.758Z,100685.16
2022-07-31T09:37:53.729Z,100688.59
2022-07-31T09:43:16.749Z,100708.88
2022-07-31T09:48:26.838Z,100676.31
2022-07-31T09:54:02.975Z,100702.94
2022-07-31T09:59:34.599Z,100682.72
2022-07-31T10:04:39.440Z,100695.66
2022-07-31T10:15:26.910Z,100650.38
2022-07-31T10:20:52.018Z,100664.00
2022-07-31T10:26:13.454Z,100650.75
2022-07-31T10:31:15.566Z,100676.78
2022-07-31T10:36:23.244Z,100656.63
2022-07-31T10:41:55.279Z,100669.50
2022-07-31T10:46:55.561Z,100629.16
2022-07-31T10:52:13.272Z,100618.25
2022-07-31T10:57:28.386Z,100605.94
2022-07-31T11:02:49.823Z,100598.88
2022-07-31T11:08:05.592Z,100591.69
2022-07-31T11:13:36.639Z,100586.44
2022-07-31T11:19:10.969Z,100592.38
2022-07-31T11:24:17.825Z,100601.66
2022-07-31T11:29:58.992Z,100558.75
2022-07-31T11:35:01.004Z,100543.56
2022-07-31T11:40:06.216Z,100577.84
2022-07-31T11:45:12.867Z,100562.34
2022-07-31T11:50:15.632Z,100550.72
2022-07-31T11:55:16.607Z,100577.13
2022-07-31T12:00:26.911Z,100550.56
2022-07-31T12:05:38.826Z,100529.91
2022-07-31T12:10:42.356Z,100539.44
2022-07-31T12:16:07.074Z,100543.50
2022-07-31T12:21:06.696Z,100531.59
2022-07-31T12:26:05.871Z,100546.06
2022-07-31T12:31:04.751Z,100501.91
2022-07-31T12:36:29.196Z,100538.28
2022-07-31T12:41:29.079Z,100511.78
2022-07-31T12:46:38.194Z,100540.00
2022-07-31T12:51:45.112Z,100551.50
2022-07-31T12:56:49.965Z,100503.50
2022-07-31T13:01:50.364Z,100504.06
2022-07-31T13:06:54.278Z,100521.03
2022-07-31T13:11:57.920Z,100492.03
2022-07-31T13:16:58.723Z,100488.50
2022-07-31T13:21:59.640Z,100486.34
2022-07-31T13:26:59.454Z,100505.59
2022-07-31T13:31:58.970Z,100507.44
2022-07-31T13:37:03.979Z,100497.50
2022-07-31T13:42:03.139Z,100495.84
2022-07-31T13:47:05.953Z,100498.25
2022-07-31T13:52:11.830Z,100498.97
2022-07-31T13:57:12.312Z,100503.88
2022-07-31T14:02:16.021Z,100481.13
2022-07-31T14:07:14.334Z,100489.22
2022-07-31T14:12:16.667Z,100487.19
2022-07-31T14:17:17.452Z,100491.50
2022-07-31T14:22:17.979Z,100466.84
2022-07-31T14:27:16.733Z,100459.19
2022-07-31T14:32:15.332Z,100455.94
2022-07-31T14:37:13.680Z,100449.78
2022-07-31T14:42:14.465Z,100452.44
2022-07-31T14:47:15.601Z,100436.84
2022-07-31T14:52:16.259Z,100439.38
2022-07-31T14:57:21.923Z,100433.59
2022-07-31T15:02:23.608Z,100430.56
2022-07-31T15:07:38.593Z,100439.63
2022-07-31T15:12:44.377Z,100430.72
2022-07-31T15:17:45.766Z,100411.09
2022-07-31T15:22:48.108Z,100402.50
2022-07-31T15:27:47.160Z,100392.88
2022-07-31T15:32:45.872Z,100391.06
2022-07-31T15:37:46.686Z,100387.06
2022-07-31T15:42:46.412Z,100384.44
2022-07-31T15:47:46.960Z,100385.69
2022-07-31T15:52:48.502Z,100356.56
2022-07-31T15:57:49.893Z,100379.22
2022-07-31T16:02:50.894Z,100363.50
2022-07-31T16:08:28.599Z,100357.13
2022-07-31T16:13:13.782Z,100375.66
2022-07-31T16:18:18.539Z,100371.09
2022-07-31T16:23:17.631Z,100383.94
2022-07-31T16:28:16.098Z,100381.94
2022-07-31T16:33:22.831Z,100389.47
2022-07-31T16:38:23.638Z,100392.81
2022-07-31T16:43:49.126Z,100387.25
2022-07-31T16:48:45.267Z,100403.84
2022-07-31T16:54:13.380Z,100395.16
2022-07-31T16:59:20.199Z,100408.59
2022-07-31T17:04:42.357Z,100454.59
2022-07-31T17:09:44.279Z,100447.72
2022-07-31T17:14:58.858Z,100474.94
2022-07-31T17:19:57.798Z,100494.22
2022-07-31T17:24:57.050Z,100498.13
2022-07-31T17:30:00.332Z,100479.84
2022-07-31T17:35:02.154Z,100513.31
2022-07-31T17:40:03.637Z,100500.34
2022-07-31T17:45:06.189Z,100498.19
2022-07-31T17:50:08.552Z,100534.16
2022-07-31T17:55:15.145Z,100502.84
2022-07-31T18:00:15.311Z,100533.44
2022-07-31T18:05:24.058Z,100524.56
2022-07-31T18:10:53.546Z,100545.63
2022-07-31T18:15:54.535Z,100528.56
2022-07-31T18:20:55.283Z,100518.34
2022-07-31T18:25:57.495Z,100521.03
2022-07-31T18:30:58.590Z,100523.00
2022-07-31T18:35:59.026Z,100535.53
2022-07-31T18:40:56.952Z,100550.19
2022-07-31T18:45:58.322Z,100529.56
2022-07-31T18:51:04.600Z,100542.53
2022-07-31T18:56:04.823Z,100543.56
2022-07-31T19:01:08.895Z,100570.00
2022-07-31T19:06:06.920Z,100549.69
2022-07-31T19:11:07.897Z,100564.00
2022-07-31T19:16:09.324Z,100570.16
2022-07-31T19:21:23.336Z,100555.78
2022-07-31T19:26:29.594Z,100565.41
2022-07-31T19:31:31.341Z,100565.88
2022-07-31T19:36:31.547Z,100567.31
2022-07-31T19:41:32.913Z,100569.03
2022-07-31T19:46:35.151Z,100534.13
2022-07-31T19:51:34.596Z,100541.56
2022-07-31T19:56:34.173Z,100555.28
2022-07-31T20:01:34.722Z,100543.75
2022-07-31T20:06:32.232Z,100550.41
2022-07-31T20:11:33.311Z,100545.66
2022-07-31T20:16:33.299Z,100544.88
2022-07-31T20:21:35.040Z,100538.50
2022-07-31T20:26:37.287Z,100541.44
2022-07-31T20:31:57.057Z,100513.41
2022-07-31T20:37:04.296Z,100530.22
2022-07-31T20:42:03.619Z,100514.88
2022-07-31T20:47:12.572Z,100529.44
2022-07-31T20:52:14.432Z,100536.88
2022-07-31T20:57:14.029Z,100508.56
2022-07-31T21:02:12.751Z,100534.47
2022-07-31T21:07:25.128Z,100528.59
2022-07-31T21:12:32.280Z,100554.41
2022-07-31T21:17:34.082Z,100573.00
2022-07-31T21:22:37.519Z,100547.50
2022-07-31T21:27:39.966Z,100577.94
2022-07-31T21:32:41.435Z,100578.16
2022-07-31T21:37:47.319Z,100573.16
2022-07-31T21:42:46.671Z,100557.41
2022-07-31T21:47:52.930Z,100592.91
2022-07-31T21:52:55.998Z,100567.66
2022-07-31T21:57:58.804Z,100569.94
2022-07-31T22:03:05.056Z,100577.91
2022-07-31T22:08:11.541Z,100574.41
2022-07-31T22:18:27.791Z,100571.72
2022-07-31T22:23:35.992Z,100547.19
2022-07-31T22:28:47.896Z,100589.63
2022-07-31T22:33:45.530Z,100584.41
2022-07-31T22:38:48.003Z,100608.72
2022-07-31T22:44:12.958Z,100573.28
2022-07-31T22:49:09.863Z,100576.44
2022-07-31T22:54:09.574Z,100587.88
2022-07-31T22:59:12.682Z,100617.56
2022-07-31T23:04:16.750Z,100588.22
2022-07-31T23:09:15.731Z,100563.31
2022-07-31T23:14:24.669Z,100563.31
2022-07-31T23:19:24.653Z,100575.59
2022-07-31T23:24:24.986Z,100561.66
2022-07-31T23:29:23.392Z,100571.06
2022-07-31T23:34:22.510Z,100574.44
2022-07-31T23:39:23.693Z,100602.19
2022-07-31T23:44:24.949Z,100554.22
2022-07-31T23:49:26.110Z,100591.41
2022-07-31T23:54:25.287Z,100560.25
2022-07-31T23:59:24.074Z,100581.97
